Time;durP1;ratioP1;P1;durP2;ratioP2;P2;SDS_P1;SDS_P2;PMS_P1;PMS_P2;Temp;Humidity;BMP_temperature;BMP_pressure;BME280_temperature;BME280_humidity;BME280_pressure;Samples;Min_cycle;Max_cycle;Signal;HPM_P1;HPM_P2
2021/11/19 03:47:31;;;;;;;5.63;2.77;;;;;;;;;;5081247;22;20608;-76
2021/11/19 03:49:59;;;;;;;4.57;2.90;;;;;;;;;;5070469;28;20645;-76
2021/11/19 03:52:27;;;;;;;4.83;2.50;;;;;;;;;;5071193;28;20296;-77
2021/11/19 03:54:56;;;;;;;5.30;2.60;;;;;;;;;;5075972;28;20216;-76
2021/11/19 03:57:27;;;;;;;5.20;2.47;;;;;;;;;;5077939;28;20216;-76
2021/11/19 03:59:55;;;;;;;4.90;2.40;;;;;;;;;;5077701;28;20316;-76
2021/11/19 04:02:24;;;;;;;3.73;2.03;;;;;;;;;;5076657;28;20752;-76
2021/11/19 04:04:52;;;;;;;3.10;1.90;;;;;;;;;;5076383;28;20209;-76
2021/11/19 04:07:20;;;;;;;3.20;2.10;;;;;;;;;;5079774;28;20332;-76
2021/11/19 04:09:47;;;;;;;3.70;1.90;;;;;;;;;;5076260;28;20816;-77
2021/11/19 04:12:16;;;;;;;3.57;1.50;;;;;;;;;;5077897;28;20202;-77
2021/11/19 04:14:43;;;;;;;2.53;1.80;;;;;;;;;;5075403;28;20202;-77
2021/11/19 04:17:11;;;;;;;3.83;1.70;;;;;;;;;;5077259;28;20289;-77
2021/11/19 04:19:38;;;;;;;2.93;1.57;;;;;;;;;;5075154;28;20360;-75
2021/11/19 04:22:08;;;;;;;3.80;1.47;;;;;;;;;;5076164;28;20336;-77
2021/11/19 04:24:37;;;;;;;1.80;1.17;;;;;;;;;;5076170;28;20289;-75
2021/11/19 04:27:06;;;;;;;2.70;1.50;;;;;;;;;;5075560;28;20208;-74
2021/11/19 04:29:34;;;;;;;2.20;1.43;;;;;;;;;;5075582;28;20233;-75
2021/11/19 04:32:01;;;;;;;1.93;1.33;;;;;;;;;;5075188;28;20197;-75
2021/11/19 04:34:29;;;;;;;3.37;1.60;;;;;;;;;;5076190;28;20746;-75
2021/11/19 04:36:56;;;;;;;1.63;1.20;;;;;;;;;;5075364;28;20385;-75
2021/11/19 04:39:25;;;;;;;2.50;1.30;;;;;;;;;;5075840;28;20240;-75
2021/11/19 04:41:52;;;;;;;2.97;1.40;;;;;;;;;;5074870;28;20285;-76
2021/11/19 04:44:20;;;;;;;1.63;1.10;;;;;;;;;;5075711;28;20220;-76
2021/11/19 04:46:48;;;;;;;1.80;1.00;;;;;;;;;;5077988;28;20556;-76
2021/11/19 04:49:16;;;;;;;1.67;1.07;;;;;;;;;;5075994;28;20751;-75
2021/11/19 04:51:44;;;;;;;4.40;1.10;;;;;;;;;;5081305;28;20214;-74
2021/11/19 04:54:11;;;;;;;1.00;0.90;;;;;;;;;;5085313;28;20850;-75
2021/11/19 04:56:41;;;;;;;2.23;1.20;;;;;;;;;;5077720;28;20291;-75
2021/11/19 04:59:09;;;;;;;1.63;0.97;;;;;;;;;;5075850;28;20390;-75
2021/11/19 05:01:37;;;;;;;1.50;0.97;;;;;;;;;;5074330;28;20662;-75
2021/11/19 05:04:05;;;;;;;3.10;1.20;;;;;;;;;;5073670;28;20227;-75
2021/11/19 05:06:32;;;;;;;1.63;0.90;;;;;;;;;;5075593;28;20219;-75
2021/11/19 05:08:59;;;;;;;1.83;0.90;;;;;;;;;;5076903;28;20206;-75
2021/11/19 05:11:28;;;;;;;3.37;1.07;;;;;;;;;;5075368;28;20543;-76
2021/11/19 05:13:58;;;;;;;2.77;1.60;;;;;;;;;;5069295;28;20220;-75
2021/11/19 05:16:25;;;;;;;4.53;1.70;;;;;;;;;;5073638;28;20201;-75
2021/11/19 05:18:53;;;;;;;5.77;2.37;;;;;;;;;;5075050;28;20232;-76
2021/11/19 05:21:22;;;;;;;4.13;1.50;;;;;;;;;;5074932;28;20243;-75
2021/11/19 05:23:50;;;;;;;2.67;1.20;;;;;;;;;;5074321;28;20593;-74
2021/11/19 05:26:17;;;;;;;2.17;1.10;;;;;;;;;;5077377;28;20208;-75
2021/11/19 05:28:45;;;;;;;1.60;0.93;;;;;;;;;;5074892;28;20244;-75
2021/11/19 05:31:15;;;;;;;4.50;1.20;;;;;;;;;;5080009;28;20748;-76
2021/11/19 05:33:42;;;;;;;2.80;1.00;;;;;;;;;;5077747;28;20481;-75
2021/11/19 05:36:10;;;;;;;3.03;1.23;;;;;;;;;;5079514;28;20238;-76
2021/11/19 05:38:39;;;;;;;2.63;1.30;;;;;;;;;;5072724;28;20201;-76
2021/11/19 05:41:06;;;;;;;1.93;1.10;;;;;;;;;;5078051;28;20221;-75
2021/11/19 05:43:34;;;;;;;1.93;0.90;;;;;;;;;;5074835;28;20198;-76
2021/11/19 05:46:02;;;;;;;2.50;1.40;;;;;;;;;;5073518;28;20205;-77
2021/11/19 05:48:31;;;;;;;2.67;0.80;;;;;;;;;;5073454;28;20205;-75
2021/11/19 05:50:58;;;;;;;2.03;1.07;;;;;;;;;;5072444;28;21380;-76
2021/11/19 05:53:25;;;;;;;2.07;1.27;;;;;;;;;;5076375;28;20570;-75
2021/11/19 05:55:52;;;;;;;2.07;1.17;;;;;;;;;;5075137;28;20216;-75
2021/11/19 05:58:21;;;;;;;2.57;1.20;;;;;;;;;;5074659;28;20217;-76
2021/11/19 06:00:50;;;;;;;2.83;1.23;;;;;;;;;;5075364;28;20221;-76
2021/11/19 06:03:18;;;;;;;2.07;1.20;;;;;;;;;;5073522;28;20284;-77
2021/11/19 06:05:47;;;;;;;2.10;1.40;;;;;;;;;;5077793;28;20310;-76
2021/11/19 06:08:14;;;;;;;3.27;1.60;;;;;;;;;;5074735;28;20280;-75
2021/11/19 06:10:49;;;;;;;2.43;1.50;;;;;;;;;;5075533;28;20228;-76
2021/11/19 06:13:16;;;;;;;3.87;1.60;;;;;;;;;;5074056;28;20205;-75
2021/11/19 06:15:44;;;;;;;2.10;1.30;;;;;;;;;;5073981;28;20563;-76
2021/11/19 06:18:13;;;;;;;3.90;1.80;;;;;;;;;;5077237;28;20228;-76
2021/11/19 06:20:41;;;;;;;6.63;1.87;;;;;;;;;;5078197;28;20230;-75
2021/11/19 06:23:12;;;;;;;4.17;2.10;;;;;;;;;;5078350;28;20758;-75
2021/11/19 06:25:40;;;;;;;3.80;2.17;;;;;;;;;;5079123;28;20214;-75
2021/11/19 06:28:09;;;;;;;3.27;2.17;;;;;;;;;;5079292;28;20236;-78
2021/11/19 06:30:36;;;;;;;3.97;1.67;;;;;;;;;;5075185;28;20370;-77
2021/11/19 06:33:03;;;;;;;4.33;2.37;;;;;;;;;;5081622;28;20289;-76
2021/11/19 06:35:31;;;;;;;3.40;2.20;;;;;;;;;;5079483;28;20297;-76
2021/11/19 06:37:58;;;;;;;4.23;2.20;;;;;;;;;;5080282;28;20408;-77
2021/11/19 06:40:28;;;;;;;5.03;2.30;;;;;;;;;;5078308;28;20304;-76
2021/11/19 06:42:57;;;;;;;2.77;1.97;;;;;;;;;;5077527;28;20655;-77
2021/11/19 06:45:24;;;;;;;3.27;2.40;;;;;;;;;;5074807;28;20198;-77
2021/11/19 06:47:52;;;;;;;4.90;2.10;;;;;;;;;;5072840;28;20216;-76
2021/11/19 06:50:21;;;;;;;4.33;2.53;;;;;;;;;;5072726;28;20217;-76
2021/11/19 06:52:48;;;;;;;5.37;2.70;;;;;;;;;;5072794;28;20300;-76
2021/11/19 06:55:15;;;;;;;3.97;2.43;;;;;;;;;;5073544;28;20371;-75
2021/11/19 06:57:44;;;;;;;4.93;2.43;;;;;;;;;;5074820;28;20202;-76
2021/11/19 07:00:13;;;;;;;7.27;4.30;;;;;;;;;;5072264;28;21094;-76
2021/11/19 07:02:40;;;;;;;9.10;4.50;;;;;;;;;;5075175;28;20675;-77
2021/11/19 07:05:07;;;;;;;4.57;2.70;;;;;;;;;;5072811;28;20567;-75
2021/11/19 07:07:35;;;;;;;7.47;3.40;;;;;;;;;;5075159;28;20336;-77
2021/11/19 07:10:02;;;;;;;3.90;2.83;;;;;;;;;;5078715;28;20304;-75
2021/11/19 07:12:30;;;;;;;5.10;2.93;;;;;;;;;;5076923;28;20198;-75
2021/11/19 07:14:58;;;;;;;5.50;2.80;;;;;;;;;;5071331;28;20767;-75
2021/11/19 07:17:25;;;;;;;7.87;3.50;;;;;;;;;;5072586;28;20309;-76
2021/11/19 07:19:53;;;;;;;4.37;2.50;;;;;;;;;;5071181;28;20228;-74
2021/11/19 07:22:20;;;;;;;11.07;5.40;;;;;;;;;;5071392;28;20208;-75
2021/11/19 07:24:47;;;;;;;5.13;2.70;;;;;;;;;;5072723;28;20197;-75
2021/11/19 07:27:15;;;;;;;6.77;4.03;;;;;;;;;;5074045;28;20574;-76
2021/11/19 07:29:43;;;;;;;10.37;6.83;;;;;;;;;;5075953;28;20711;-76
2021/11/19 07:32:12;;;;;;;7.70;4.40;;;;;;;;;;5076679;28;20206;-75
2021/11/19 07:34:39;;;;;;;19.13;10.80;;;;;;;;;;5082463;28;20822;-75
2021/11/19 07:37:06;;;;;;;20.17;12.10;;;;;;;;;;5077712;28;20226;-77
2021/11/19 07:39:33;;;;;;;89.87;50.60;;;;;;;;;;5076178;28;20237;-76
2021/11/19 07:42:00;;;;;;;22.87;11.87;;;;;;;;;;5072333;28;20288;-75
2021/11/19 07:44:27;;;;;;;13.03;7.80;;;;;;;;;;5081325;28;20296;-76
2021/11/19 07:46:55;;;;;;;12.70;5.50;;;;;;;;;;5081293;28;20289;-76
2021/11/19 07:49:23;;;;;;;13.93;6.13;;;;;;;;;;5075801;28;20296;-76
2021/11/19 07:51:52;;;;;;;8.63;4.27;;;;;;;;;;5080345;28;20297;-75
2021/11/19 07:54:19;;;;;;;8.83;4.73;;;;;;;;;;5077245;28;20197;-76
2021/11/19 07:56:47;;;;;;;9.13;4.90;;;;;;;;;;5077271;28;20604;-76
2021/11/19 07:59:15;;;;;;;7.53;4.60;;;;;;;;;;5080814;28;20202;-78
2021/11/19 08:01:43;;;;;;;6.27;3.93;;;;;;;;;;5078399;28;20661;-77
2021/11/19 08:04:10;;;;;;;14.77;7.97;;;;;;;;;;5075987;28;20297;-79
2021/11/19 08:06:39;;;;;;;24.63;12.20;;;;;;;;;;5078199;28;20209;-79
2021/11/19 08:09:06;;;;;;;24.20;11.03;;;;;;;;;;5081564;28;20193;-78
2021/11/19 08:11:34;;;;;;;19.23;8.90;;;;;;;;;;5078650;28;20240;-75
2021/11/19 08:14:01;;;;;;;12.93;6.37;;;;;;;;;;5079411;28;20288;-76
2021/11/19 08:16:29;;;;;;;14.13;7.63;;;;;;;;;;5074640;28;20243;-75
2021/11/19 08:18:57;;;;;;;15.53;8.53;;;;;;;;;;5074775;28;20300;-77
2021/11/19 08:21:25;;;;;;;17.50;8.33;;;;;;;;;;5076519;28;20807;-76
2021/11/19 08:23:55;;;;;;;17.87;8.60;;;;;;;;;;5079111;28;20206;-75
2021/11/19 08:26:23;;;;;;;18.03;8.47;;;;;;;;;;5078367;28;20404;-76
2021/11/19 08:28:51;;;;;;;17.10;8.50;;;;;;;;;;5080216;28;20230;-76
2021/11/19 08:31:20;;;;;;;18.67;8.90;;;;;;;;;;5077400;28;20308;-75
2021/11/19 08:33:48;;;;;;;17.10;9.63;;;;;;;;;;5075613;28;20567;-76
2021/11/19 08:36:16;;;;;;;20.63;9.03;;;;;;;;;;5078370;28;20289;-75
2021/11/19 08:38:44;;;;;;;16.17;8.93;;;;;;;;;;5077302;28;20205;-76
2021/11/19 08:41:14;;;;;;;14.13;7.57;;;;;;;;;;5077227;28;20225;-76
2021/11/19 08:43:42;;;;;;;18.17;7.87;;;;;;;;;;5082243;28;20206;-76
2021/11/19 08:46:11;;;;;;;19.63;10.10;;;;;;;;;;5078417;28;20332;-76
2021/11/19 08:48:40;;;;;;;17.27;7.97;;;;;;;;;;5073757;28;20216;-75
2021/11/19 08:51:10;;;;;;;17.03;6.80;;;;;;;;;;5075654;28;20221;-75
2021/11/19 08:53:38;;;;;;;15.17;7.77;;;;;;;;;;5079120;28;20723;-76
2021/11/19 08:56:06;;;;;;;14.07;7.70;;;;;;;;;;5077772;28;20677;-76
2021/11/19 08:58:36;;;;;;;17.77;8.77;;;;;;;;;;5070941;28;20206;-76
2021/11/19 09:01:05;;;;;;;16.50;8.73;;;;;;;;;;5072192;28;20974;-75
2021/11/19 09:03:34;;;;;;;11.00;6.23;;;;;;;;;;5071207;28;20208;-76
2021/11/19 09:06:01;;;;;;;12.70;7.20;;;;;;;;;;5071426;28;20209;-76
2021/11/19 09:08:30;;;;;;;19.50;10.17;;;;;;;;;;5069280;28;20519;-76
2021/11/19 09:10:57;;;;;;;16.93;8.80;;;;;;;;;;5070971;28;20221;-76
2021/11/19 09:13:25;;;;;;;8.67;4.77;;;;;;;;;;5071374;28;20581;-76
2021/11/19 09:15:54;;;;;;;13.90;5.97;;;;;;;;;;5079514;28;20292;-76
2021/11/19 09:18:25;;;;;;;10.50;5.40;;;;;;;;;;5079575;28;20202;-76
2021/11/19 09:20:58;;;;;;;10.93;5.17;;;;;;;;;;5077127;28;20222;-77
2021/11/19 09:23:28;;;;;;;10.50;5.17;;;;;;;;;;5077834;28;20229;-75
2021/11/19 09:25:56;;;;;;;7.77;3.20;;;;;;;;;;5078511;28;20206;-75
2021/11/19 09:28:25;;;;;;;21.67;3.97;;;;;;;;;;5080192;28;20275;-75
2021/11/19 09:30:56;;;;;;;10.47;3.57;;;;;;;;;;5080226;28;20305;-76
2021/11/19 09:33:24;;;;;;;3.77;1.97;;;;;;;;;;5079594;28;20742;-76
2021/11/19 09:35:51;;;;;;;4.27;2.33;;;;;;;;;;5080728;28;20607;-76
2021/11/19 09:38:20;;;;;;;6.43;2.60;;;;;;;;;;5075599;28;20727;-76
2021/11/19 09:40:51;;;;;;;5.33;2.70;;;;;;;;;;5077483;28;20818;-76
2021/11/19 09:43:23;;;;;;;4.27;2.10;;;;;;;;;;5077302;28;20288;-76
2021/11/19 09:46:08;;;;;;;3.73;2.23;;;;;;;;;;5076349;28;20206;-74
2021/11/19 09:48:46;;;;;;;4.33;2.37;;;;;;;;;;5033845;28;20703;-74
2021/11/19 09:51:32;;;;;;;3.37;1.90;;;;;;;;;;5075550;28;20681;-76
2021/11/19 09:54:29;;;;;;;3.37;1.97;;;;;;;;;;5078130;28;20241;-76
2021/11/19 09:57:06;;;;;;;4.23;2.10;;;;;;;;;;5076774;28;20365;-76
2021/11/19 09:59:37;;;;;;;3.70;2.33;;;;;;;;;;5077477;28;20308;-76
2021/11/19 10:02:12;;;;;;;4.37;2.20;;;;;;;;;;5077811;28;20221;-76
2021/11/19 10:04:50;;;;;;;3.47;2.20;;;;;;;;;;5080219;28;20770;-76
2021/11/19 10:07:23;;;;;;;3.67;1.60;;;;;;;;;;5078980;28;20888;-76
2021/11/19 10:09:57;;;;;;;3.10;1.60;;;;;;;;;;5079236;28;20225;-75
2021/11/19 10:12:26;;;;;;;1.67;1.30;;;;;;;;;;5078305;28;20586;-75
2021/11/19 10:14:58;;;;;;;2.90;1.90;;;;;;;;;;5077615;28;20297;-76
2021/11/19 10:17:47;;;;;;;3.33;1.80;;;;;;;;;;5078084;28;20671;-76
2021/11/19 10:20:17;;;;;;;2.33;1.30;;;;;;;;;;5071865;28;20228;-76
2021/11/19 10:22:51;;;;;;;1.93;1.37;;;;;;;;;;5079115;28;20284;-76
2021/11/19 10:25:23;;;;;;;3.03;1.83;;;;;;;;;;5079113;28;20291;-76
2021/11/19 10:27:54;;;;;;;3.27;1.67;;;;;;;;;;5077306;28;20305;-76
2021/11/19 10:30:37;;;;;;;5.53;1.50;;;;;;;;;;5076730;28;20257;-75
2021/11/19 10:33:06;;;;;;;1.67;1.33;;;;;;;;;;5077333;28;20209;-76
2021/11/19 10:35:40;;;;;;;2.33;1.53;;;;;;;;;;5076620;28;20237;-77
2021/11/19 10:38:30;;;;;;;2.57;1.70;;;;;;;;;;5076774;28;20740;-76
2021/11/19 10:41:18;;;;;;;4.37;1.30;;;;;;;;;;5080554;28;20317;-75
2021/11/19 10:44:05;;;;;;;2.70;1.40;;;;;;;;;;5077609;28;20267;-75
2021/11/19 10:46:48;;;;;;;3.03;1.07;;;;;;;;;;5078545;28;20288;-75
2021/11/19 10:49:21;;;;;;;1.70;1.20;;;;;;;;;;5077984;28;20207;-76
2021/11/19 10:52:03;;;;;;;2.27;1.30;;;;;;;;;;5076326;28;20244;-76
2021/11/19 10:54:57;;;;;;;3.77;1.47;;;;;;;;;;5074767;28;20281;-74
2021/11/19 10:57:39;;;;;;;2.20;1.40;;;;;;;;;;5077976;28;20296;-75
2021/11/19 11:00:10;;;;;;;2.17;1.50;;;;;;;;;;5075314;28;20759;-76
2021/11/19 11:02:39;;;;;;;4.27;1.70;;;;;;;;;;5078277;28;20278;-76
2021/11/19 11:05:19;;;;;;;2.43;1.50;;;;;;;;;;5080754;28;20670;-75
2021/11/19 11:08:02;;;;;;;2.20;1.37;;;;;;;;;;5080891;28;20289;-77
2021/11/19 11:10:31;;;;;;;2.43;1.40;;;;;;;;;;5080737;28;20307;-74
2021/11/19 11:12:59;;;;;;;2.40;1.13;;;;;;;;;;5082642;28;20359;-75
2021/11/19 11:15:29;;;;;;;2.37;1.37;;;;;;;;;;5083730;28;20292;-76
2021/11/19 11:18:05;;;;;;;1.67;1.03;;;;;;;;;;5080803;28;20198;-76
2021/11/19 11:20:33;;;;;;;1.27;0.83;;;;;;;;;;5080909;28;20314;-76
2021/11/19 11:23:02;;;;;;;1.63;0.93;;;;;;;;;;5081493;28;20289;-75
2021/11/19 11:25:31;;;;;;;3.77;1.10;;;;;;;;;;5081436;28;20248;-75
2021/11/19 11:28:04;;;;;;;2.80;1.07;;;;;;;;;;5077629;28;20230;-76
2021/11/19 11:30:46;;;;;;;1.23;0.80;;;;;;;;;;5081346;28;20237;-76
2021/11/19 11:33:17;;;;;;;1.60;0.90;;;;;;;;;;5080621;28;20774;-76
2021/11/19 11:35:46;;;;;;;3.27;1.10;;;;;;;;;;5079887;28;20209;-76
2021/11/19 11:38:31;;;;;;;1.53;0.90;;;;;;;;;;5080713;28;20212;-75
2021/11/19 11:41:11;;;;;;;1.20;0.97;;;;;;;;;;5080758;28;20302;-76
2021/11/19 11:43:40;;;;;;;3.50;1.10;;;;;;;;;;5080466;28;20750;-75
2021/11/19 11:46:28;;;;;;;2.43;1.07;;;;;;;;;;5081426;28;20651;-76
2021/11/19 11:49:16;;;;;;;3.30;1.50;;;;;;;;;;5079204;28;20235;-75
2021/11/19 11:51:51;;;;;;;2.63;1.10;;;;;;;;;;5080928;28;20753;-76
2021/11/19 11:54:30;;;;;;;2.10;1.07;;;;;;;;;;5080307;28;20303;-75
2021/11/19 11:57:16;;;;;;;1.37;0.97;;;;;;;;;;5081714;28;20205;-75
2021/11/19 11:59:50;;;;;;;1.43;1.13;;;;;;;;;;5080958;28;20715;-75
2021/11/19 12:02:26;;;;;;;1.83;1.20;;;;;;;;;;5081320;28;20315;-75
2021/11/19 12:04:58;;;;;;;3.63;1.43;;;;;;;;;;5083154;28;20211;-75
2021/11/19 12:07:31;;;;;;;1.37;1.20;;;;;;;;;;5081469;28;20241;-76
2021/11/19 12:10:02;;;;;;;1.97;1.10;;;;;;;;;;5080953;28;20303;-75
2021/11/19 12:12:35;;;;;;;1.43;1.03;;;;;;;;;;5078717;28;20280;-75
2021/11/19 12:15:13;;;;;;;1.67;1.23;;;;;;;;;;5078238;28;20501;-76
2021/11/19 12:17:43;;;;;;;1.53;1.10;;;;;;;;;;5080727;28;20333;-76
2021/11/19 12:20:18;;;;;;;2.13;0.80;;;;;;;;;;5078712;28;20237;-76
2021/11/19 12:22:47;;;;;;;1.63;0.83;;;;;;;;;;5078924;28;20268;-76
2021/11/19 12:25:27;;;;;;;2.37;1.00;;;;;;;;;;5079137;28;20502;-76
2021/11/19 12:27:56;;;;;;;1.30;0.70;;;;;;;;;;5079753;28;20216;-75
2021/11/19 12:30:30;;;;;;;1.50;0.90;;;;;;;;;;5079288;28;20305;-76
2021/11/19 12:33:00;;;;;;;1.53;0.70;;;;;;;;;;5080777;28;20221;-75
2021/11/19 12:35:32;;;;;;;2.40;0.80;;;;;;;;;;5080477;28;20287;-76
2021/11/19 12:38:03;;;;;;;3.90;1.00;;;;;;;;;;5081254;28;20672;-76
2021/11/19 12:40:34;;;;;;;1.83;0.80;;;;;;;;;;5080021;28;20317;-76
2021/11/19 12:43:05;;;;;;;3.33;0.90;;;;;;;;;;5080104;28;20582;-75
2021/11/19 12:45:35;;;;;;;2.07;1.00;;;;;;;;;;5078709;28;20294;-77
2021/11/19 12:48:26;;;;;;;2.03;1.13;;;;;;;;;;5078523;28;20308;-75
2021/11/19 12:50:55;;;;;;;3.73;0.90;;;;;;;;;;5080621;28;20257;-76
2021/11/19 12:53:59;;;;;;;1.33;0.90;;;;;;;;;;5077942;28;20210;-76
2021/11/19 12:56:40;;;;;;;1.67;1.00;;;;;;;;;;4995280;28;20209;-75
2021/11/19 12:59:16;;;;;;;2.73;0.80;;;;;;;;;;4993888;28;20261;-76
2021/11/19 13:02:02;;;;;;;1.90;1.20;;;;;;;;;;5046201;28;20941;-75
2021/11/19 13:04:35;;;;;;;1.77;1.07;;;;;;;;;;5078239;28;20205;-75
2021/11/19 13:07:08;;;;;;;1.33;0.90;;;;;;;;;;5078607;28;20246;-76
2021/11/19 13:09:53;;;;;;;4.53;1.00;;;;;;;;;;5076418;28;20222;-76
2021/11/19 13:12:44;;;;;;;2.40;1.07;;;;;;;;;;5078272;28;20285;-75
2021/11/19 13:15:30;;;;;;;1.57;0.90;;;;;;;;;;5079633;28;20208;-78
2021/11/19 13:18:06;;;;;;;1.20;0.80;;;;;;;;;;5081996;28;20646;-77
2021/11/19 13:20:36;;;;;;;1.50;1.00;;;;;;;;;;5081197;28;20311;-77
2021/11/19 13:23:25;;;;;;;1.87;1.17;;;;;;;;;;5077542;28;20244;-77
2021/11/19 13:25:53;;;;;;;2.53;1.50;;;;;;;;;;5079504;28;20241;-78
2021/11/19 13:28:35;;;;;;;1.73;1.00;;;;;;;;;;5079772;28;20288;-77
2021/11/19 13:31:17;;;;;;;1.53;1.30;;;;;;;;;;5076165;28;20320;-78
2021/11/19 13:34:06;;;;;;;1.77;1.30;;;;;;;;;;5080321;28;20772;-78
2021/11/19 13:36:36;;;;;;;2.50;1.60;;;;;;;;;;5079209;28;20213;-77
2021/11/19 13:39:14;;;;;;;1.87;1.60;;;;;;;;;;5077021;28;20289;-77
2021/11/19 13:41:43;;;;;;;2.03;1.50;;;;;;;;;;5079857;28;20662;-78
2021/11/19 13:44:11;;;;;;;3.77;1.77;;;;;;;;;;5079852;28;20241;-78
2021/11/19 13:46:47;;;;;;;3.60;2.03;;;;;;;;;;5082088;28;20237;-77
2021/11/19 13:49:29;;;;;;;3.73;2.30;;;;;;;;;;5078132;28;20630;-78
2021/11/19 13:52:01;;;;;;;4.60;2.80;;;;;;;;;;5079595;28;20246;-77
2021/11/19 13:54:34;;;;;;;4.40;2.43;;;;;;;;;;5080173;28;20229;-78
2021/11/19 13:57:14;;;;;;;6.00;3.00;;;;;;;;;;5081129;28;20236;-78
2021/11/19 13:59:52;;;;;;;5.57;2.90;;;;;;;;;;5078703;28;20226;-77
2021/11/19 14:02:26;;;;;;;5.67;3.00;;;;;;;;;;5075069;28;20249;-78
2021/11/19 14:04:58;;;;;;;6.93;3.47;;;;;;;;;;5078963;28;20232;-77
2021/11/19 14:07:28;;;;;;;7.30;4.33;;;;;;;;;;5080179;28;20252;-77
2021/11/19 14:09:59;;;;;;;7.67;4.43;;;;;;;;;;5079043;28;20251;-77
2021/11/19 14:12:26;;;;;;;7.30;4.20;;;;;;;;;;5073356;28;20206;-76
2021/11/19 14:14:55;;;;;;;7.17;4.10;;;;;;;;;;5077304;28;20290;-77
2021/11/19 14:17:32;;;;;;;8.83;5.17;;;;;;;;;;5073464;28;20214;-78
2021/11/19 14:23:03;;;;;;;9.47;5.03;;;;;;;;;;5078505;28;20225;-77
2021/11/19 14:25:30;;;;;;;12.53;5.40;;;;;;;;;;5078636;28;20672;-77
2021/11/19 14:28:00;;;;;;;7.63;4.73;;;;;;;;;;5072538;28;20753;-78
2021/11/19 14:30:30;;;;;;;9.73;5.60;;;;;;;;;;5076174;28;20225;-77
2021/11/19 14:33:07;;;;;;;11.40;6.63;;;;;;;;;;5072646;28;20293;-77
2021/11/19 14:35:35;;;;;;;9.70;5.43;;;;;;;;;;5073094;28;20287;-76
2021/11/19 14:38:05;;;;;;;11.60;6.60;;;;;;;;;;5078009;28;20240;-77
2021/11/19 14:40:37;;;;;;;13.03;6.17;;;;;;;;;;5082931;28;20313;-78
2021/11/19 14:43:04;;;;;;;10.37;5.70;;;;;;;;;;5079162;28;20312;-77
2021/11/19 14:45:33;;;;;;;8.60;5.57;;;;;;;;;;5082100;28;20296;-77
2021/11/19 14:48:02;;;;;;;8.60;5.03;;;;;;;;;;5081988;28;20296;-75
2021/11/19 14:53:18;;;;;;;12.77;6.37;;;;;;;;;;5080041;28;20510;-78
2021/11/19 14:55:57;;;;;;;9.70;5.77;;;;;;;;;;5075335;28;20296;-77
2021/11/19 14:58:27;;;;;;;16.50;9.90;;;;;;;;;;5080945;28;20730;-75
2021/11/19 15:00:55;;;;;;;10.80;6.40;;;;;;;;;;5082365;28;20237;-75
2021/11/19 15:03:23;;;;;;;25.90;14.87;;;;;;;;;;5078975;28;20350;-74
2021/11/19 15:05:52;;;;;;;15.17;7.43;;;;;;;;;;5078129;28;20285;-74
2021/11/19 15:08:26;;;;;;;14.00;7.13;;;;;;;;;;5081219;28;20209;-75
2021/11/19 15:10:59;;;;;;;14.30;6.93;;;;;;;;;;5078889;28;20339;-75
2021/11/19 15:13:29;;;;;;;21.47;13.23;;;;;;;;;;5079189;28;20513;-75
2021/11/19 15:15:58;;;;;;;14.13;9.23;;;;;;;;;;5083469;28;20554;-74
2021/11/19 15:18:28;;;;;;;18.00;10.20;;;;;;;;;;5080281;28;20762;-75
2021/11/19 15:21:10;;;;;;;11.53;6.73;;;;;;;;;;5072550;28;20214;-74
2021/11/19 15:23:40;;;;;;;15.73;8.13;;;;;;;;;;5079732;28;20308;-75
2021/11/19 15:26:20;;;;;;;28.90;16.37;;;;;;;;;;5077406;28;20264;-74
2021/11/19 15:28:47;;;;;;;18.43;10.87;;;;;;;;;;5078197;28;20704;-74
2021/11/19 15:31:20;;;;;;;18.97;10.10;;;;;;;;;;5079433;28;20304;-74
2021/11/19 15:33:58;;;;;;;25.17;14.33;;;;;;;;;;5076074;28;20232;-74
2021/11/19 15:36:29;;;;;;;18.53;9.23;;;;;;;;;;5075155;28;20285;-74
2021/11/19 15:38:58;;;;;;;17.10;9.40;;;;;;;;;;5171648;22;20576;-75
2021/11/19 15:41:26;;;;;;;18.50;9.70;;;;;;;;;;5073608;28;20305;-77
2021/11/19 15:43:58;;;;;;;17.03;9.50;;;;;;;;;;5077482;28;20270;-77
2021/11/19 15:46:28;;;;;;;15.60;8.23;;;;;;;;;;5078778;28;20284;-75
2021/11/19 15:48:56;;;;;;;14.53;8.07;;;;;;;;;;5077860;28;20220;-73
2021/11/19 15:51:25;;;;;;;17.50;10.00;;;;;;;;;;5080884;28;20264;-74
2021/11/19 15:53:54;;;;;;;19.73;10.10;;;;;;;;;;5081735;28;20293;-75
2021/11/19 15:56:36;;;;;;;19.10;10.67;;;;;;;;;;5078405;28;20198;-74
2021/11/19 15:59:14;;;;;;;16.27;9.00;;;;;;;;;;5078603;28;20736;-74
2021/11/19 16:01:44;;;;;;;16.97;9.33;;;;;;;;;;5078244;28;20198;-74
2021/11/19 16:04:38;;;;;;;14.20;8.20;;;;;;;;;;5075819;28;20234;-74
2021/11/19 16:07:16;;;;;;;20.03;10.87;;;;;;;;;;5031629;28;20288;-74
2021/11/19 16:09:52;;;;;;;18.53;10.53;;;;;;;;;;5077078;28;20794;-74
2021/11/19 16:12:37;;;;;;;20.47;11.60;;;;;;;;;;5080258;28;20289;-77
2021/11/19 16:15:04;;;;;;;21.83;10.97;;;;;;;;;;5074307;28;20288;-73
2021/11/19 16:17:32;;;;;;;14.03;8.43;;;;;;;;;;5079884;28;20232;-74
2021/11/19 16:19:59;;;;;;;22.40;11.23;;;;;;;;;;5076482;28;20303;-75
2021/11/19 16:22:26;;;;;;;23.33;11.43;;;;;;;;;;5075636;28;20222;-75
2021/11/19 16:24:53;;;;;;;19.03;10.33;;;;;;;;;;5077381;28;20284;-74
2021/11/19 16:27:23;;;;;;;21.40;11.23;;;;;;;;;;5077156;28;20297;-74
2021/11/19 16:29:53;;;;;;;22.17;12.00;;;;;;;;;;5078234;28;20249;-75
2021/11/19 16:32:21;;;;;;;24.97;12.30;;;;;;;;;;5078162;28;20288;-75
2021/11/19 16:34:48;;;;;;;23.57;12.60;;;;;;;;;;5075746;28;20241;-75
2021/11/19 16:37:16;;;;;;;20.77;11.50;;;;;;;;;;5077493;28;20209;-76
2021/11/19 16:39:44;;;;;;;23.47;13.93;;;;;;;;;;5074599;28;20794;-76
2021/11/19 16:42:12;;;;;;;23.30;13.47;;;;;;;;;;5077666;28;20341;-76
2021/11/19 16:44:40;;;;;;;24.80;14.07;;;;;;;;;;5076779;28;20629;-76
2021/11/19 16:47:09;;;;;;;21.20;10.63;;;;;;;;;;5078869;28;20305;-76
2021/11/19 16:49:39;;;;;;;22.20;12.43;;;;;;;;;;5075505;28;20320;-75
2021/11/19 16:52:07;;;;;;;28.17;12.13;;;;;;;;;;5076486;28;20206;-76
2021/11/19 16:54:35;;;;;;;25.37;13.13;;;;;;;;;;5077035;28;20206;-76
2021/11/19 16:57:04;;;;;;;25.13;13.83;;;;;;;;;;5077567;28;20690;-76
2021/11/19 16:59:31;;;;;;;26.53;13.80;;;;;;;;;;5077826;28;20364;-76
2021/11/19 17:01:58;;;;;;;22.53;12.83;;;;;;;;;;5077439;28;20206;-77
2021/11/19 17:04:27;;;;;;;25.03;12.33;;;;;;;;;;5073529;28;20287;-76
2021/11/19 17:06:55;;;;;;;23.00;12.10;;;;;;;;;;5075554;28;20282;-76
2021/11/19 17:09:23;;;;;;;21.77;12.00;;;;;;;;;;5076192;28;20233;-76
2021/11/19 17:11:51;;;;;;;26.53;13.20;;;;;;;;;;5075822;28;20209;-76
2021/11/19 17:14:19;;;;;;;24.73;13.57;;;;;;;;;;5074083;28;20298;-76
2021/11/19 17:16:47;;;;;;;24.40;12.73;;;;;;;;;;5077731;28;20262;-77
2021/11/19 17:19:14;;;;;;;28.10;13.47;;;;;;;;;;5074625;28;20217;-77
2021/11/19 17:21:43;;;;;;;30.93;15.07;;;;;;;;;;5076802;28;20205;-76
2021/11/19 17:24:12;;;;;;;27.77;14.90;;;;;;;;;;5077421;28;20316;-76
2021/11/19 17:26:41;;;;;;;27.00;13.93;;;;;;;;;;5074685;28;20739;-76
2021/11/19 17:29:10;;;;;;;25.77;14.30;;;;;;;;;;5070888;28;20216;-75
2021/11/19 17:31:40;;;;;;;29.63;15.23;;;;;;;;;;5069254;28;20198;-76
2021/11/19 17:34:08;;;;;;;27.60;15.27;;;;;;;;;;5073051;28;20201;-76
2021/11/19 17:36:40;;;;;;;29.50;15.57;;;;;;;;;;5072484;28;20292;-75
2021/11/19 17:39:10;;;;;;;28.17;14.87;;;;;;;;;;5073712;28;20221;-76
2021/11/19 17:41:38;;;;;;;35.23;16.87;;;;;;;;;;5073844;28;20233;-76
2021/11/19 17:44:05;;;;;;;32.77;15.97;;;;;;;;;;5077120;28;20261;-76
2021/11/19 17:46:35;;;;;;;33.03;16.00;;;;;;;;;;5075544;28;20231;-75
2021/11/19 17:49:03;;;;;;;29.47;16.00;;;;;;;;;;5073862;28;20206;-77
2021/11/19 17:51:32;;;;;;;31.77;15.97;;;;;;;;;;5072596;28;20198;-76
2021/11/19 17:54:00;;;;;;;29.43;16.00;;;;;;;;;;5073569;28;20296;-75
2021/11/19 17:56:30;;;;;;;31.33;16.80;;;;;;;;;;5075192;28;20230;-75
2021/11/19 17:58:57;;;;;;;35.73;18.27;;;;;;;;;;5070060;28;20218;-75
2021/11/19 18:01:26;;;;;;;40.20;20.03;;;;;;;;;;5071959;28;20308;-75
2021/11/19 18:03:53;;;;;;;31.07;17.47;;;;;;;;;;5071980;28;20229;-76
2021/11/19 18:06:21;;;;;;;34.50;18.13;;;;;;;;;;5073767;28;20318;-76
2021/11/19 18:08:48;;;;;;;36.07;18.33;;;;;;;;;;5071953;28;20206;-75
2021/11/19 18:11:17;;;;;;;29.97;16.90;;;;;;;;;;5073428;28;20788;-76
2021/11/19 18:13:46;;;;;;;35.83;17.83;;;;;;;;;;5073674;28;20277;-75
2021/11/19 18:16:14;;;;;;;37.47;19.03;;;;;;;;;;5063914;28;20614;-76
2021/11/19 18:18:41;;;;;;;35.90;18.97;;;;;;;;;;5072104;28;20200;-76
2021/11/19 18:21:10;;;;;;;34.10;17.60;;;;;;;;;;5071199;28;20715;-76
2021/11/19 18:23:38;;;;;;;34.70;18.47;;;;;;;;;;5074911;28;20265;-76
2021/11/19 18:26:05;;;;;;;36.13;19.07;;;;;;;;;;5072271;28;20216;-76
2021/11/19 18:28:33;;;;;;;37.10;19.43;;;;;;;;;;5075440;28;20687;-75
2021/11/19 18:31:03;;;;;;;42.53;21.30;;;;;;;;;;5074388;28;20306;-76
2021/11/19 18:33:30;;;;;;;46.50;24.77;;;;;;;;;;5073403;28;20651;-76
2021/11/19 18:35:58;;;;;;;46.70;23.47;;;;;;;;;;5074588;28;20390;-76
2021/11/19 18:38:27;;;;;;;42.30;21.50;;;;;;;;;;5075143;28;20206;-76
2021/11/19 18:40:55;;;;;;;44.43;21.27;;;;;;;;;;5072542;28;20272;-77
2021/11/19 18:43:23;;;;;;;42.87;21.47;;;;;;;;;;5072994;28;20214;-75
2021/11/19 18:45:51;;;;;;;40.47;20.23;;;;;;;;;;5071303;28;20238;-75
2021/11/19 18:48:20;;;;;;;60.07;33.53;;;;;;;;;;5074646;28;20298;-75
2021/11/19 18:50:49;;;;;;;59.53;27.87;;;;;;;;;;5074378;28;20785;-76